createdAt,value
2018-08-24T00:00:58.842Z,55.63
2018-08-24T00:03:26.524Z,55.45
2018-08-24T00:05:54.396Z,55.99
2018-08-24T00:08:23.052Z,56.00
2018-08-24T00:10:51.194Z,55.39
2018-08-24T00:13:19.376Z,55.16
2018-08-24T00:15:48.140Z,55.96
2018-08-24T00:18:15.803Z,56.10
2018-08-24T00:20:43.886Z,55.67
2018-08-24T00:23:11.673Z,55.53
2018-08-24T00:25:39.322Z,55.82
2018-08-24T00:28:07.628Z,56.65
2018-08-24T00:30:35.896Z,56.59
2018-08-24T00:33:03.913Z,56.26
2018-08-24T00:35:31.983Z,56.23
2018-08-24T00:38:00.272Z,56.01
2018-08-24T00:40:28.286Z,56.36
2018-08-24T00:42:56.192Z,57.10
2018-08-24T00:45:23.794Z,57.37
2018-08-24T00:47:51.434Z,57.65
2018-08-24T00:50:19.061Z,57.46
2018-08-24T00:52:46.742Z,56.62
2018-08-24T00:55:14.361Z,57.32
2018-08-24T00:57:41.985Z,58.01
2018-08-24T01:00:09.613Z,57.80
2018-08-24T01:02:38.336Z,57.16
2018-08-24T01:05:06.702Z,57.58
2018-08-24T01:07:39.851Z,57.08
2018-08-24T01:10:13.956Z,57.45
2018-08-24T01:12:41.610Z,58.24
2018-08-24T01:15:09.361Z,57.83
2018-08-24T01:17:42.693Z,56.97
2018-08-24T01:20:10.367Z,57.31
2018-08-24T01:22:38.012Z,57.46
2018-08-24T01:25:06.141Z,58.31
2018-08-24T01:27:34.437Z,58.03
2018-08-24T01:30:02.074Z,58.09
2018-08-24T01:32:30.278Z,57.39
2018-08-24T01:34:57.937Z,57.13
2018-08-24T01:37:25.868Z,57.55
2018-08-24T01:39:53.820Z,57.48
2018-08-24T01:42:21.803Z,57.35
2018-08-24T01:44:49.436Z,57.61
2018-08-24T01:47:17.089Z,57.41
2018-08-24T01:49:44.997Z,58.21
2018-08-24T01:52:12.983Z,57.57
2018-08-24T01:54:40.924Z,58.23
2018-08-24T01:57:08.805Z,57.88
2018-08-24T01:59:36.997Z,58.58
2018-08-24T02:02:04.983Z,58.30
2018-08-24T02:04:32.885Z,58.07
2018-08-24T02:07:00.892Z,57.56
2018-08-24T02:09:28.807Z,58.53
2018-08-24T02:11:56.745Z,58.78
2018-08-24T02:14:30.311Z,57.97
2018-08-24T02:16:58.561Z,58.00
2018-08-24T02:19:31.924Z,58.01
2018-08-24T02:22:05.092Z,58.29
2018-08-24T02:24:32.756Z,58.22
2018-08-24T02:27:00.786Z,57.65
2018-08-24T02:29:28.795Z,58.26
2018-08-24T02:31:56.473Z,58.15
2018-08-24T02:34:24.648Z,58.04
2018-08-24T02:36:52.849Z,57.58
2018-08-24T02:39:20.547Z,58.15
2018-08-24T02:41:48.281Z,57.79
2018-08-24T02:44:15.909Z,58.05
2018-08-24T02:46:44.114Z,57.77
2018-08-24T02:49:12.364Z,57.90
2018-08-24T02:51:39.985Z,58.16
2018-08-24T02:54:07.627Z,57.99
2018-08-24T02:56:35.350Z,57.84
2018-08-24T02:59:03.259Z,57.16
2018-08-24T03:01:30.874Z,56.99
2018-08-24T03:03:58.586Z,57.21
2018-08-24T03:06:26.209Z,57.36
2018-08-24T03:08:54.163Z,56.78
2018-08-24T03:11:22.353Z,57.14
2018-08-24T03:13:50.728Z,57.31
2018-08-24T03:16:18.677Z,57.13
2018-08-24T03:18:46.350Z,57.16
2018-08-24T03:21:13.997Z,57.32
2018-08-24T03:23:41.608Z,57.15
2018-08-24T03:26:09.268Z,57.28
2018-08-24T03:28:37.162Z,56.37
2018-08-24T03:31:04.860Z,57.06
2018-08-24T03:33:32.911Z,56.78
2018-08-24T03:36:00.893Z,56.43
2018-08-24T03:38:28.861Z,56.82
2018-08-24T03:40:56.479Z,57.01
2018-08-24T03:43:24.575Z,56.35
2018-08-24T03:45:52.532Z,56.03
2018-08-24T03:48:20.188Z,56.49
2018-08-24T03:50:47.886Z,55.71
2018-08-24T03:53:15.852Z,55.64
2018-08-24T03:55:44.239Z,56.12
2018-08-24T03:58:11.956Z,55.29
2018-08-24T04:00:39.814Z,55.79
2018-08-24T04:03:07.546Z,55.91
2018-08-24T04:05:35.486Z,55.92
2018-08-24T04:08:03.213Z,55.83
2018-08-24T04:10:31.177Z,55.10
2018-08-24T04:12:59.141Z,55.23
2018-08-24T04:15:26.769Z,55.05
2018-08-24T04:17:54.758Z,55.66
2018-08-24T04:20:22.736Z,54.77
2018-08-24T04:22:50.760Z,55.53
2018-08-24T04:25:18.444Z,55.87
2018-08-24T04:27:46.314Z,55.65
2018-08-24T04:30:13.984Z,55.15
2018-08-24T04:32:41.638Z,55.04
2018-08-24T04:35:09.238Z,55.67
2018-08-24T04:37:36.937Z,55.27
2018-08-24T04:40:05.975Z,54.89
2018-08-24T04:42:33.594Z,55.68
2018-08-24T04:45:01.334Z,55.05
2018-08-24T04:47:29.418Z,54.99
2018-08-24T04:49:57.374Z,55.48
2018-08-24T04:52:25.296Z,55.41
2018-08-24T04:54:53.197Z,55.22
2018-08-24T04:57:20.860Z,54.95
2018-08-24T04:59:48.588Z,54.98
2018-08-24T05:02:16.346Z,54.07
2018-08-24T05:04:44.100Z,54.14
2018-08-24T05:07:11.775Z,54.56
2018-08-24T05:09:39.730Z,54.17
2018-08-24T05:12:07.666Z,53.66
2018-08-24T05:14:35.389Z,53.58
2018-08-24T05:17:03.117Z,54.05
2018-08-24T05:19:30.967Z,54.00
2018-08-24T05:21:58.887Z,54.02
2018-08-24T05:24:26.589Z,54.45
2018-08-24T05:26:54.318Z,54.07
2018-08-24T05:29:22.225Z,54.78
2018-08-24T05:31:50.186Z,55.89
2018-08-24T05:34:17.949Z,56.60
2018-08-24T05:36:45.995Z,56.69
2018-08-24T05:39:13.848Z,55.95
2018-08-24T05:41:42.080Z,55.46
2018-08-24T05:44:10.443Z,55.13
2018-08-24T05:46:38.101Z,56.15
2018-08-24T05:49:05.728Z,55.53
2018-08-24T05:51:33.404Z,55.42
2018-08-24T05:54:01.086Z,55.19
2018-08-24T05:56:28.849Z,55.85
2018-08-24T05:58:56.743Z,55.62
2018-08-24T06:01:24.539Z,54.89
2018-08-24T06:03:52.554Z,54.89
2018-08-24T06:06:20.242Z,54.85
2018-08-24T06:08:53.559Z,55.04
2018-08-24T06:11:21.497Z,55.06
2018-08-24T06:13:50.074Z,55.31
2018-08-24T06:16:17.728Z,54.67
2018-08-24T06:18:45.385Z,54.60
2018-08-24T06:21:13.346Z,55.00
2018-08-24T06:23:41.683Z,54.64
2018-08-24T06:26:09.350Z,54.60
2018-08-24T06:28:36.999Z,54.32
2018-08-24T06:31:04.711Z,54.93
2018-08-24T06:33:32.905Z,54.27
2018-08-24T06:36:00.577Z,54.42
2018-08-24T06:38:28.429Z,54.86
2018-08-24T06:40:56.517Z,54.91
2018-08-24T06:43:24.266Z,54.25
2018-08-24T06:45:51.930Z,54.13
2018-08-24T06:48:20.058Z,54.66
2018-08-24T06:50:47.736Z,54.63
2018-08-24T06:53:15.723Z,54.05
2018-08-24T06:55:43.305Z,54.32
2018-08-24T06:58:10.983Z,53.75
2018-08-24T07:00:38.770Z,54.09
2018-08-24T07:03:06.682Z,53.66
2018-08-24T07:05:34.585Z,53.65
2018-08-24T07:08:02.374Z,53.89
2018-08-24T07:10:30.375Z,53.69
2018-08-24T07:12:58.401Z,53.67
2018-08-24T07:15:26.493Z,54.04
2018-08-24T07:18:00.291Z,54.56
2018-08-24T07:20:28.061Z,54.00
2018-08-24T07:22:56.073Z,53.86
2018-08-24T07:25:23.893Z,53.97
2018-08-24T07:27:51.580Z,54.05
2018-08-24T07:30:19.916Z,54.15
2018-08-24T07:32:48.150Z,53.77
2018-08-24T07:35:16.184Z,54.63
2018-08-24T07:37:44.182Z,53.79
2018-08-24T07:40:11.939Z,53.75
2018-08-24T07:42:39.817Z,54.29
2018-08-24T07:45:07.826Z,53.74
2018-08-24T07:47:35.881Z,53.83
2018-08-24T07:50:03.827Z,54.27
2018-08-24T07:52:31.831Z,54.40
2018-08-24T07:54:59.488Z,53.54
2018-08-24T07:57:27.758Z,53.44
2018-08-24T07:59:56.012Z,53.75
2018-08-24T08:02:56.036Z,53.39
2018-08-24T08:05:23.843Z,53.80
2018-08-24T08:07:51.826Z,53.30
2018-08-24T08:10:19.442Z,53.40
2018-08-24T08:12:47.050Z,54.04
2018-08-24T08:15:14.957Z,54.09
2018-08-24T08:17:43.000Z,54.10
2018-08-24T08:20:11.173Z,53.34
2018-08-24T08:22:38.825Z,53.78
2018-08-24T08:25:06.576Z,53.46
2018-08-24T08:27:34.933Z,53.68
2018-08-24T08:30:05.117Z,53.23
2018-08-24T08:32:33.541Z,52.89
2018-08-24T08:35:01.310Z,53.07
2018-08-24T08:37:29.048Z,53.39
2018-08-24T08:40:02.338Z,52.47
2018-08-24T08:42:30.357Z,53.00
2018-08-24T08:44:58.590Z,52.59
2018-08-24T08:47:26.306Z,53.12
2018-08-24T08:49:54.279Z,53.00
2018-08-24T08:52:22.340Z,53.00
2018-08-24T08:54:50.081Z,51.99
2018-08-24T08:57:18.241Z,51.96
2018-08-24T08:59:46.272Z,52.90
2018-08-24T09:02:13.953Z,51.96
2018-08-24T09:04:41.959Z,51.87
2018-08-24T09:07:10.244Z,52.73
2018-08-24T09:09:38.000Z,52.57
2018-08-24T09:12:06.902Z,52.04
2018-08-24T09:14:34.805Z,51.94
2018-08-24T09:17:08.321Z,52.56
2018-08-24T09:19:41.682Z,52.76
2018-08-24T09:22:14.945Z,52.05
2018-08-24T09:24:48.233Z,51.95
2018-08-24T09:27:21.649Z,52.73
2018-08-24T09:29:49.557Z,52.60
2018-08-24T09:32:17.715Z,51.97
2018-08-24T09:34:45.961Z,51.76
2018-08-24T09:37:19.269Z,52.40
2018-08-24T09:39:46.971Z,51.58
2018-08-24T09:42:14.612Z,51.89
2018-08-24T09:44:42.609Z,51.87
2018-08-24T09:47:15.938Z,51.66
2018-08-24T09:49:44.154Z,50.71
2018-08-24T09:52:17.612Z,51.55
2018-08-24T09:54:45.400Z,50.69
2018-08-24T09:57:13.068Z,51.30
2018-08-24T09:59:40.775Z,50.68
2018-08-24T10:02:14.099Z,51.29
2018-08-24T10:04:47.205Z,51.31
2018-08-24T10:07:24.677Z,51.14
2018-08-24T10:09:52.669Z,50.81
2018-08-24T10:12:20.326Z,51.49
2018-08-24T10:14:48.406Z,50.42
2018-08-24T10:17:16.333Z,50.36
2018-08-24T10:19:43.999Z,50.41
2018-08-24T10:22:12.568Z,50.85
2018-08-24T10:24:40.197Z,50.66
2018-08-24T10:27:08.012Z,50.78
2018-08-24T10:29:36.148Z,50.93
2018-08-24T10:32:04.097Z,50.65
2018-08-24T10:34:31.801Z,50.70
2018-08-24T10:36:59.503Z,50.76
2018-08-24T10:39:27.514Z,50.10
2018-08-24T10:41:55.429Z,50.87
2018-08-24T10:44:23.420Z,50.81
2018-08-24T10:46:51.132Z,51.21
2018-08-24T10:49:18.785Z,50.74
2018-08-24T10:51:46.472Z,50.75
2018-08-24T10:54:14.385Z,50.61
2018-08-24T10:56:42.389Z,50.73
2018-08-24T10:59:10.516Z,51.18
2018-08-24T11:01:38.173Z,51.18
2018-08-24T11:04:06.296Z,51.10
2018-08-24T11:06:34.273Z,50.21
2018-08-24T11:09:02.280Z,50.25
2018-08-24T11:11:29.965Z,49.77
2018-08-24T11:13:57.935Z,50.00
2018-08-24T11:16:25.640Z,50.17
2018-08-24T11:18:53.973Z,49.82
2018-08-24T11:21:22.822Z,49.22
2018-08-24T11:23:50.774Z,49.83
2018-08-24T11:26:18.927Z,49.42
2018-08-24T11:28:47.295Z,48.83
2018-08-24T11:31:14.925Z,48.63
2018-08-24T11:33:43.221Z,48.04
2018-08-24T11:36:10.986Z,48.75
2018-08-24T11:38:38.599Z,49.19
2018-08-24T11:41:06.305Z,47.83
2018-08-24T11:43:34.446Z,47.92
2018-08-24T11:46:02.409Z,47.33
2018-08-24T11:48:30.274Z,47.82
2018-08-24T11:50:59.412Z,47.32
2018-08-24T11:53:27.085Z,48.40
2018-08-24T11:55:54.747Z,47.82
2018-08-24T11:58:23.006Z,47.53
2018-08-24T12:00:51.310Z,45.39
2018-08-24T12:03:19.262Z,46.04
2018-08-24T12:05:47.163Z,45.61
2018-08-24T12:08:15.160Z,45.09
2018-08-24T12:10:43.092Z,45.17
2018-08-24T12:13:11.047Z,44.58
2018-08-24T12:15:39.241Z,44.89
2018-08-24T12:18:06.932Z,44.93
2018-08-24T12:20:34.536Z,45.32
2018-08-24T12:23:02.328Z,45.96
2018-08-24T12:25:30.302Z,46.98
2018-08-24T12:27:57.953Z,47.21
2018-08-24T12:30:25.956Z,46.57
2018-08-24T12:32:54.373Z,47.54
2018-08-24T12:35:22.028Z,46.72
2018-08-24T12:37:49.658Z,47.58
2018-08-24T12:40:17.840Z,47.73
2018-08-24T12:42:45.978Z,46.86
2018-08-24T12:45:13.909Z,47.53
2018-08-24T12:47:41.565Z,47.03
2018-08-24T12:50:10.293Z,47.45
2018-08-24T12:52:38.482Z,47.50
2018-08-24T12:55:06.437Z,47.30
2018-08-24T12:57:34.116Z,47.54
2018-08-24T13:00:02.163Z,48.21
2018-08-24T13:02:29.860Z,47.69
2018-08-24T13:04:57.836Z,48.57
2018-08-24T13:07:25.570Z,48.29
2018-08-24T13:09:53.495Z,48.61
2018-08-24T13:12:21.124Z,47.77
2018-08-24T13:14:49.582Z,48.36
2018-08-24T13:17:18.299Z,47.60
2018-08-24T13:19:46.199Z,47.79
2018-08-24T13:22:13.867Z,47.80
2018-08-24T13:24:41.586Z,48.77
2018-08-24T13:27:09.683Z,48.24
2018-08-24T13:29:37.617Z,48.36
2018-08-24T13:32:05.844Z,48.02
2018-08-24T13:34:34.085Z,48.02
2018-08-24T13:37:01.815Z,47.55
2018-08-24T13:39:29.689Z,47.36
2018-08-24T13:41:57.691Z,47.48
2018-08-24T13:44:25.572Z,48.23
2018-08-24T13:46:53.277Z,48.42
2018-08-24T13:49:20.918Z,48.43
2018-08-24T13:51:48.580Z,47.82
2018-08-24T13:54:16.577Z,47.72
2018-08-24T13:56:44.503Z,47.92
2018-08-24T13:59:12.951Z,48.34
2018-08-24T14:01:40.887Z,47.85
2018-08-24T14:04:09.212Z,48.05
2018-08-24T14:06:37.113Z,47.60
2018-08-24T14:09:07.691Z,48.70
2018-08-24T14:11:35.386Z,48.44
2018-08-24T14:14:03.101Z,47.60
2018-08-24T14:16:31.023Z,47.11
2018-08-24T14:18:59.211Z,47.06
2018-08-24T14:21:26.857Z,46.69
2018-08-24T14:23:54.768Z,46.47
2018-08-24T14:26:23.015Z,44.68
2018-08-24T14:28:50.631Z,45.46
2018-08-24T14:31:18.316Z,47.07
2018-08-24T14:33:45.965Z,46.94
2018-08-24T14:36:14.452Z,43.43
2018-08-24T14:38:42.181Z,42.53
2018-08-24T14:41:10.097Z,44.91
2018-08-24T14:43:38.515Z,44.54
2018-08-24T14:46:06.543Z,43.84
2018-08-24T14:48:34.273Z,44.62
2018-08-24T14:51:01.965Z,44.42
2018-08-24T14:53:29.589Z,43.83
2018-08-24T14:55:57.649Z,39.85
2018-08-24T14:58:25.574Z,38.83
2018-08-24T15:00:53.638Z,38.98
2018-08-24T15:03:21.620Z,38.89
2018-08-24T15:05:49.266Z,39.25
2018-08-24T15:08:17.468Z,40.87
2018-08-24T15:10:45.136Z,42.67
2018-08-24T15:13:13.081Z,42.85
2018-08-24T15:15:41.012Z,41.49
2018-08-24T15:18:08.694Z,40.78
2018-08-24T15:20:37.434Z,42.37
2018-08-24T15:23:05.283Z,41.63
2018-08-24T15:25:33.382Z,38.56
2018-08-24T15:28:01.002Z,38.04
2018-08-24T15:30:28.667Z,36.98
2018-08-24T15:32:56.366Z,37.06
2018-08-24T15:35:24.319Z,38.71
2018-08-24T15:37:51.985Z,39.49
2018-08-24T15:40:19.629Z,40.68
2018-08-24T15:42:47.373Z,41.72
2018-08-24T15:45:15.239Z,42.04
2018-08-24T15:47:42.860Z,42.98
2018-08-24T15:50:10.593Z,42.96
2018-08-24T15:52:38.257Z,43.15
2018-08-24T15:55:06.235Z,43.28
2018-08-24T15:57:34.157Z,44.21
2018-08-24T16:00:01.998Z,44.16
2018-08-24T16:02:29.579Z,44.42
2018-08-24T16:04:57.489Z,44.61
2018-08-24T16:07:25.793Z,44.17
2018-08-24T16:09:53.722Z,44.50
2018-08-24T16:12:21.464Z,44.83
2018-08-24T16:14:49.681Z,45.55
2018-08-24T16:17:17.340Z,44.94
2018-08-24T16:19:45.175Z,45.03
2018-08-24T16:22:12.874Z,45.52
2018-08-24T16:24:40.788Z,45.76
2018-08-24T16:27:09.445Z,45.09
2018-08-24T16:29:37.178Z,45.36
2018-08-24T16:32:11.602Z,46.35
2018-08-24T16:34:39.590Z,46.55
2018-08-24T16:37:08.034Z,45.94
2018-08-24T16:39:35.676Z,46.36
2018-08-24T16:42:03.467Z,46.33
2018-08-24T16:44:31.326Z,47.16
2018-08-24T16:46:59.385Z,47.32
2018-08-24T16:49:27.104Z,47.06
2018-08-24T16:51:54.827Z,47.48
2018-08-24T16:54:22.706Z,47.25
2018-08-24T16:56:50.341Z,47.25
2018-08-24T16:59:18.018Z,47.63
2018-08-24T17:01:45.967Z,48.10
2018-08-24T17:04:13.922Z,47.57
2018-08-24T17:06:41.564Z,48.04
2018-08-24T17:09:11.287Z,47.51
2018-08-24T17:11:38.942Z,48.29
2018-08-24T17:14:06.634Z,48.76
2018-08-24T17:16:35.246Z,48.73
2018-08-24T17:19:03.024Z,48.10
2018-08-24T17:21:31.147Z,48.97
2018-08-24T17:23:59.085Z,48.26
2018-08-24T17:26:27.104Z,48.59
2018-08-24T17:28:54.726Z,48.42
2018-08-24T17:31:22.406Z,48.93
2018-08-24T17:33:50.138Z,49.00
2018-08-24T17:36:18.088Z,48.85
2018-08-24T17:38:46.037Z,49.54
2018-08-24T17:41:13.829Z,48.84
2018-08-24T17:43:41.549Z,49.64
2018-08-24T17:46:09.214Z,48.95
2018-08-24T17:48:37.384Z,49.05
2018-08-24T17:51:05.402Z,49.33
2018-08-24T17:53:33.069Z,49.93
2018-08-24T17:56:00.730Z,50.28
2018-08-24T17:58:28.389Z,50.07
2018-08-24T18:00:56.791Z,50.19
2018-08-24T18:03:24.425Z,50.57
2018-08-24T18:05:52.090Z,49.97
2018-08-24T18:08:20.074Z,50.73
2018-08-24T18:10:47.745Z,50.58
2018-08-24T18:13:15.647Z,50.20
2018-08-24T18:15:43.905Z,50.08
2018-08-24T18:18:11.548Z,50.86
2018-08-24T18:20:39.210Z,50.99
2018-08-24T18:23:06.977Z,50.43
2018-08-24T18:25:35.543Z,50.67
2018-08-24T18:28:03.437Z,50.74
2018-08-24T18:30:31.060Z,50.59
2018-08-24T18:32:59.641Z,51.39
2018-08-24T18:35:27.264Z,51.60
2018-08-24T18:37:54.909Z,51.32
2018-08-24T18:40:23.096Z,50.97
2018-08-24T18:42:50.741Z,51.08
2018-08-24T18:45:18.597Z,51.33
2018-08-24T18:47:46.269Z,51.40
2018-08-24T18:50:14.485Z,51.65
2018-08-24T18:52:42.553Z,51.74
2018-08-24T18:55:10.979Z,51.24
2018-08-24T18:57:38.614Z,52.04
2018-08-24T19:00:07.182Z,51.33
2018-08-24T19:02:35.219Z,52.17
2018-08-24T19:05:03.120Z,51.81
2018-08-24T19:07:30.836Z,51.55
2018-08-24T19:09:58.421Z,51.77
2018-08-24T19:12:27.651Z,51.93
2018-08-24T19:14:56.265Z,52.32
2018-08-24T19:17:29.351Z,51.59
2018-08-24T19:20:02.708Z,52.20
2018-08-24T19:22:30.437Z,51.59
2018-08-24T19:24:58.404Z,52.33
2018-08-24T19:27:30.591Z,51.87
2018-08-24T19:30:04.199Z,52.17
2018-08-24T19:32:32.241Z,51.91
2018-08-24T19:34:59.937Z,52.33
2018-08-24T19:37:27.763Z,52.62
2018-08-24T19:40:01.170Z,52.59
2018-08-24T19:42:28.802Z,52.02
2018-08-24T19:44:56.793Z,52.03
2018-08-24T19:47:30.215Z,52.25
2018-08-24T19:49:58.351Z,51.66
2018-08-24T19:52:26.601Z,52.08
2018-08-24T19:54:54.286Z,52.26
2018-08-24T19:57:27.496Z,52.77
2018-08-24T19:59:55.489Z,52.20
2018-08-24T20:02:23.425Z,52.32
2018-08-24T20:04:51.465Z,52.89
2018-08-24T20:07:24.601Z,52.80
2018-08-24T20:09:57.772Z,52.28
2018-08-24T20:12:25.677Z,52.75
2018-08-24T20:14:59.318Z,52.83
2018-08-24T20:17:29.189Z,52.58
2018-08-24T20:19:57.604Z,53.03
2018-08-24T20:22:25.311Z,52.32
2018-08-24T20:24:53.090Z,52.29
2018-08-24T20:27:21.400Z,52.93
2018-08-24T20:29:49.012Z,52.90
2018-08-24T20:32:16.677Z,53.03
2018-08-24T20:34:44.609Z,52.25
2018-08-24T20:37:12.821Z,52.32
2018-08-24T20:39:40.500Z,53.13
2018-08-24T20:42:08.152Z,52.67
2018-08-24T20:44:36.243Z,52.82
2018-08-24T20:47:04.145Z,52.57
2018-08-24T20:49:31.782Z,52.48
2018-08-24T20:51:59.435Z,52.40
2018-08-24T20:54:27.122Z,52.41
2018-08-24T20:56:55.687Z,53.09
2018-08-24T20:59:23.433Z,52.48
2018-08-24T21:01:51.378Z,52.51
2018-08-24T21:04:19.514Z,52.52
2018-08-24T21:06:47.403Z,52.68
2018-08-24T21:09:15.368Z,53.38
2018-08-24T21:11:43.647Z,53.28
2018-08-24T21:14:11.614Z,52.71
2018-08-24T21:16:39.721Z,53.46
2018-08-24T21:19:07.646Z,52.65
2018-08-24T21:21:35.595Z,53.42
2018-08-24T21:24:03.304Z,52.88
2018-08-24T21:26:30.926Z,53.42
2018-08-24T21:28:58.764Z,53.50
2018-08-24T21:31:26.401Z,52.69
2018-08-24T21:33:54.403Z,53.22
2018-08-24T21:36:22.369Z,53.48
2018-08-24T21:38:50.316Z,53.32
2018-08-24T21:41:18.626Z,53.43
2018-08-24T21:43:46.257Z,52.77
2018-08-24T21:46:13.990Z,53.51
2018-08-24T21:48:42.145Z,53.55
2018-08-24T21:51:09.779Z,53.38
2018-08-24T21:53:37.952Z,53.01
2018-08-24T21:56:05.938Z,52.74
2018-08-24T21:58:33.641Z,52.82
2018-08-24T22:01:01.582Z,53.22
2018-08-24T22:03:29.262Z,52.78
2018-08-24T22:05:56.954Z,53.61
2018-08-24T22:08:24.904Z,53.06
2018-08-24T22:10:52.548Z,53.60
2018-08-24T22:13:20.583Z,53.69
2018-08-24T22:15:48.271Z,53.58
2018-08-24T22:18:15.977Z,53.07
2018-08-24T22:20:43.989Z,53.60
2018-08-24T22:23:11.679Z,53.11
2018-08-24T22:25:39.329Z,53.60
2018-08-24T22:28:07.330Z,53.05
2018-08-24T22:30:35.017Z,53.67
2018-08-24T22:33:03.367Z,53.65
2018-08-24T22:35:31.049Z,53.54
2018-08-24T22:37:58.668Z,53.55
2018-08-24T22:40:26.648Z,53.12
2018-08-24T22:42:54.326Z,53.86
2018-08-24T22:45:23.189Z,53.06
2018-08-24T22:47:51.969Z,53.40
2018-08-24T22:50:19.938Z,53.49
2018-08-24T22:52:48.193Z,53.38
2018-08-24T22:55:16.146Z,53.71
2018-08-24T22:57:44.184Z,53.81
2018-08-24T23:00:11.845Z,53.17
2018-08-24T23:02:39.499Z,53.21
2018-08-24T23:05:07.394Z,53.93
2018-08-24T23:07:35.344Z,53.17
2018-08-24T23:10:02.998Z,53.93
2018-08-24T23:12:30.668Z,54.00
2018-08-24T23:14:58.706Z,53.58
2018-08-24T23:17:26.376Z,53.46
2018-08-24T23:19:54.065Z,53.24
2018-08-24T23:22:22.043Z,54.04
2018-08-24T23:24:49.708Z,53.53
2018-08-24T23:27:17.413Z,53.78
2018-08-24T23:29:45.316Z,53.29
2018-08-24T23:32:12.992Z,53.90
2018-08-24T23:34:40.769Z,53.87
2018-08-24T23:37:08.820Z,53.89
2018-08-24T23:39:36.935Z,54.02
2018-08-24T23:42:04.558Z,53.57
2018-08-24T23:44:32.212Z,53.34
2018-08-24T23:47:00.904Z,53.40
2018-08-24T23:49:28.552Z,53.88
2018-08-24T23:51:56.559Z,53.22
2018-08-24T23:54:24.249Z,53.97
2018-08-24T23:56:52.298Z,53.91
2018-08-24T23:59:19.929Z,53.96
